Time;durP1;ratioP1;P1;durP2;ratioP2;P2;SDS_P1;SDS_P2;PMS_P1;PMS_P2;Temp;Humidity;BMP_temperature;BMP_pressure;BME280_temperature;BME280_humidity;BME280_pressure;Samples;Min_cycle;Max_cycle;Signal;HPM_P1;HPM_P2
2022/04/27 00:02:08;;;;;;;;;;;;;;;27.94;26.50;100691.25;5098858;28;790;-31
2022/04/27 00:04:34;;;;;;;;;;;;;;;27.94;26.52;100688.53;5098172;28;825;-34
2022/04/27 00:06:59;;;;;;;;;;;;;;;27.92;26.80;100687.88;5098474;28;853;-36
2022/04/27 00:09:24;;;;;;;;;;;;;;;27.99;26.48;100687.97;5086046;28;1033;-33
2022/04/27 00:11:50;;;;;;;;;;;;;;;27.89;26.39;100690.13;5077836;28;828;-36
2022/04/27 00:14:15;;;;;;;;;;;;;;;27.87;26.69;100682.19;5077918;28;913;-36
2022/04/27 00:16:40;;;;;;;;;;;;;;;27.86;26.38;100675.94;5077192;28;1905;-32
2022/04/27 00:19:05;;;;;;;;;;;;;;;27.83;26.30;100679.03;5077654;28;889;-31
2022/04/27 00:21:31;;;;;;;;;;;;;;;27.87;26.31;100683.06;5078062;28;1444;-34
2022/04/27 00:23:56;;;;;;;;;;;;;;;27.84;26.08;100685.28;5089353;28;852;-34
2022/04/27 00:26:21;;;;;;;;;;;;;;;27.83;26.16;100680.91;5098274;28;857;-36
2022/04/27 00:28:47;;;;;;;;;;;;;;;27.85;25.97;100676.16;5097986;28;817;-30
2022/04/27 00:31:12;;;;;;;;;;;;;;;27.86;26.00;100675.94;5097378;28;733;-33
2022/04/27 00:33:37;;;;;;;;;;;;;;;27.87;25.97;100674.94;5097676;28;818;-34
2022/04/27 00:36:03;;;;;;;;;;;;;;;27.92;25.96;100671.66;5096892;28;1894;-34
2022/04/27 00:38:28;;;;;;;;;;;;;;;27.95;26.08;100675.84;5097310;28;1051;-33
2022/04/27 00:40:53;;;;;;;;;;;;;;;27.90;26.02;100676.41;5098128;28;884;-34
2022/04/27 00:43:38;;;;;;;;;;;;;;;27.84;26.05;100677.19;5097941;28;885;-36
2022/04/27 00:46:03;;;;;;;;;;;;;;;27.82;25.86;100673.81;5096895;28;1002;-33
2022/04/27 00:48:28;;;;;;;;;;;;;;;27.81;25.60;100674.88;5091341;28;1401;-35
2022/04/27 00:50:54;;;;;;;;;;;;;;;27.77;25.58;100674.41;5077275;28;902;-36
2022/04/27 00:53:19;;;;;;;;;;;;;;;27.79;25.93;100672.34;5076956;28;1038;-33
2022/04/27 00:55:45;;;;;;;;;;;;;;;27.71;25.82;100662.47;5059464;28;1960;-37
2022/04/27 00:58:10;;;;;;;;;;;;;;;27.75;25.62;100668.34;5077278;28;1445;-36
2022/04/27 01:00:36;;;;;;;;;;;;;;;27.77;25.59;100668.16;5067643;28;1061;-33
2022/04/27 01:03:01;;;;;;;;;;;;;;;27.74;25.66;100666.69;5077092;28;801;-34
2022/04/27 01:05:26;;;;;;;;;;;;;;;27.75;25.76;100668.34;5076821;28;1420;-32
2022/04/27 01:07:52;;;;;;;;;;;;;;;27.76;25.85;100667.31;5076562;28;876;-35
2022/04/27 01:10:18;;;;;;;;;;;;;;;27.84;25.71;100669.88;5075235;28;1046;-33
2022/04/27 01:12:43;;;;;;;;;;;;;;;27.65;26.14;100667.75;5076687;28;742;-34
2022/04/27 01:15:09;;;;;;;;;;;;;;;27.69;26.37;100661.00;5075971;28;891;-35
2022/04/27 01:17:34;;;;;;;;;;;;;;;27.42;26.40;100672.25;5077069;28;1910;-33
2022/04/27 01:19:59;;;;;;;;;;;;;;;27.51;26.77;100671.13;5076722;28;866;-30
2022/04/27 01:22:25;;;;;;;;;;;;;;;27.67;26.16;100671.97;5076565;28;782;-31
2022/04/27 01:24:50;;;;;;;;;;;;;;;27.64;26.15;100677.75;5076199;28;1048;-37
2022/04/27 01:27:15;;;;;;;;;;;;;;;27.29;26.69;100674.78;5076293;28;890;-34
2022/04/27 01:29:41;;;;;;;;;;;;;;;27.31;26.35;100684.34;5076579;28;824;-32
2022/04/27 01:32:06;;;;;;;;;;;;;;;27.42;26.46;100682.22;5076592;28;1156;-34
2022/04/27 01:34:31;;;;;;;;;;;;;;;27.38;26.64;100687.16;5076231;28;770;-32
2022/04/27 01:39:45;;;;;;;;;;;;;;;27.45;26.22;100685.41;5056301;28;1435;-32
2022/04/27 01:42:10;;;;;;;;;;;;;;;27.50;26.51;100682.97;5076301;28;814;-36
2022/04/27 01:44:37;;;;;;;;;;;;;;;27.63;26.18;100689.56;5076240;28;920;-34
2022/04/27 01:47:02;;;;;;;;;;;;;;;27.57;26.33;100693.88;5076103;28;916;-31
2022/04/27 01:49:28;;;;;;;;;;;;;;;27.50;26.27;100701.03;5076140;28;921;-36
2022/04/27 01:54:36;;;;;;;;;;;;;;;27.36;26.75;100690.03;5075718;28;958;-33
2022/04/27 01:57:02;;;;;;;;;;;;;;;27.61;26.23;100691.63;5075288;28;1894;-31
2022/04/27 01:59:27;;;;;;;;;;;;;;;27.45;26.46;100687.25;5077877;28;1186;-35
2022/04/27 02:01:53;;;;;;;;;;;;;;;27.41;26.47;100691.38;5096307;28;762;-36
2022/04/27 02:04:18;;;;;;;;;;;;;;;27.41;26.63;100688.66;5095662;28;860;-36
2022/04/27 02:06:44;;;;;;;;;;;;;;;27.30;26.71;100688.09;5095914;28;814;-33
2022/04/27 02:09:09;;;;;;;;;;;;;;;27.30;26.97;100688.09;5095788;28;1045;-35
2022/04/27 02:11:34;;;;;;;;;;;;;;;27.31;27.01;100689.75;5096032;28;869;-31
2022/04/27 02:14:00;;;;;;;;;;;;;;;27.36;27.19;100691.94;5096292;28;924;-32
2022/04/27 02:16:25;;;;;;;;;;;;;;;27.54;27.01;100691.56;5095816;28;1964;-35
2022/04/27 02:18:51;;;;;;;;;;;;;;;27.46;27.01;100687.06;5095577;28;864;-37
2022/04/27 02:21:16;;;;;;;;;;;;;;;27.41;26.96;100691.38;5096346;28;742;-33
2022/04/27 02:23:42;;;;;;;;;;;;;;;27.38;27.15;100682.59;5095465;28;971;-34
2022/04/27 02:26:07;;;;;;;;;;;;;;;27.62;26.79;100687.91;5095784;28;1301;-34
2022/04/27 02:28:33;;;;;;;;;;;;;;;27.63;26.53;100685.00;5096134;28;761;-35
2022/04/27 02:30:58;;;;;;;;;;;;;;;27.66;26.54;100686.47;5095623;28;979;-32
2022/04/27 02:33:23;;;;;;;;;;;;;;;27.61;26.85;100681.66;5096172;28;782;-33
2022/04/27 02:35:49;;;;;;;;;;;;;;;27.64;26.72;100683.16;5095740;28;1897;-32
2022/04/27 02:38:15;;;;;;;;;;;;;;;27.54;26.59;100685.28;5095723;28;753;-35
2022/04/27 02:40:40;;;;;;;;;;;;;;;27.44;26.72;100683.72;5096448;28;853;-33
2022/04/27 02:43:05;;;;;;;;;;;;;;;27.53;26.67;100686.34;5095442;28;840;-34
2022/04/27 02:45:30;;;;;;;;;;;;;;;27.67;26.62;100684.63;5095801;28;785;-34
2022/04/27 02:47:56;;;;;;;;;;;;;;;27.57;26.66;100683.06;5095878;28;727;-37
2022/04/27 02:53:05;;;;;;;;;;;;;;;27.45;26.44;100692.66;5095473;28;812;-34
2022/04/27 02:55:30;;;;;;;;;;;;;;;27.41;26.76;100692.19;5095664;28;840;-31
2022/04/27 02:57:55;;;;;;;;;;;;;;;27.47;26.34;100696.00;5095510;28;1894;-36
2022/04/27 03:00:21;;;;;;;;;;;;;;;27.42;26.65;100701.97;5095072;28;1034;-34
2022/04/27 03:02:46;;;;;;;;;;;;;;;27.47;26.51;100717.63;5095533;28;912;-36
2022/04/27 03:05:11;;;;;;;;;;;;;;;27.61;26.20;100718.66;5095672;28;749;-34
2022/04/27 03:07:37;;;;;;;;;;;;;;;27.54;26.47;100729.38;5095246;28;917;-31
2022/04/27 03:10:03;;;;;;;;;;;;;;;27.65;26.33;100722.66;5094954;28;895;-33
2022/04/27 03:12:28;;;;;;;;;;;;;;;27.38;27.12;100731.22;5097845;28;757;-34
2022/04/27 03:14:53;;;;;;;;;;;;;;;27.37;27.30;100728.72;5098757;28;869;-31
2022/04/27 03:17:19;;;;;;;;;;;;;;;27.32;27.41;100731.97;5099854;28;1910;-36
2022/04/27 03:19:44;;;;;;;;;;;;;;;27.69;27.08;100720.44;5098681;28;877;-35
2022/04/27 03:22:09;;;;;;;;;;;;;;;27.82;26.59;100717.06;5098906;28;824;-36
2022/04/27 03:24:35;;;;;;;;;;;;;;;27.68;26.88;100716.00;5098889;28;818;-30
2022/04/27 03:27:00;;;;;;;;;;;;;;;27.83;26.78;100724.16;5098565;28;823;-32
2022/04/27 03:29:25;;;;;;;;;;;;;;;27.65;26.66;100719.94;5098396;28;1333;-33
2022/04/27 03:31:50;;;;;;;;;;;;;;;27.48;26.84;100724.69;5098763;28;873;-35
2022/04/27 03:34:16;;;;;;;;;;;;;;;26.98;27.30;100727.88;5098732;28;899;-37
2022/04/27 03:36:41;;;;;;;;;;;;;;;26.71;27.18;100730.94;5098594;28;1952;-37
2022/04/27 03:39:06;;;;;;;;;;;;;;;26.64;27.25;100730.03;5098846;28;994;-34
2022/04/27 03:41:32;;;;;;;;;;;;;;;26.79;27.09;100740.88;5098830;28;857;-37
2022/04/27 03:43:57;;;;;;;;;;;;;;;26.71;27.08;100733.66;5098346;28;834;-37
2022/04/27 03:46:22;;;;;;;;;;;;;;;26.66;26.85;100736.06;5098431;28;907;-34
2022/04/27 03:48:48;;;;;;;;;;;;;;;26.34;27.38;100736.09;5098530;28;1042;-36
2022/04/27 03:51:13;;;;;;;;;;;;;;;26.17;27.54;100738.03;5098452;28;858;-33
2022/04/27 03:53:38;;;;;;;;;;;;;;;26.18;27.86;100742.41;5098845;28;791;-32
2022/04/27 03:56:04;;;;;;;;;;;;;;;26.08;28.22;100745.31;5097474;28;1886;-35
2022/04/27 03:58:30;;;;;;;;;;;;;;;25.90;28.25;100753.66;5090088;28;1308;-33
2022/04/27 04:00:55;;;;;;;;;;;;;;;26.21;27.66;100749.31;5096545;28;993;-32
2022/04/27 04:03:20;;;;;;;;;;;;;;;26.16;27.55;100749.81;5098549;28;956;-34
2022/04/27 04:05:46;;;;;;;;;;;;;;;25.88;27.75;100753.81;5096407;28;1629;-36
2022/04/27 04:08:11;;;;;;;;;;;;;;;25.92;27.86;100752.44;5086459;28;1388;-32
2022/04/27 04:10:36;;;;;;;;;;;;;;;25.80;28.16;100761.94;5088205;28;822;-35
2022/04/27 04:13:02;;;;;;;;;;;;;;;25.75;28.37;100759.78;5079843;28;769;-33
2022/04/27 04:15:27;;;;;;;;;;;;;;;25.75;28.82;100759.78;5078442;28;804;-32
2022/04/27 04:17:52;;;;;;;;;;;;;;;25.74;28.66;100760.78;5078082;28;1905;-32
2022/04/27 04:20:18;;;;;;;;;;;;;;;25.71;28.69;100761.13;5078284;28;798;-35
2022/04/27 04:22:43;;;;;;;;;;;;;;;25.68;28.63;100762.31;5078036;28;818;-34
2022/04/27 04:30:36;;;;;;;;;;;;;;;25.63;28.85;100764.69;5078117;28;782;-34
2022/04/27 04:33:02;;;;;;;;;;;;;;;25.62;28.80;100770.22;5089895;28;1128;-36
2022/04/27 04:35:27;;;;;;;;;;;;;;;25.67;28.77;100775.97;5097229;28;1037;-33
2022/04/27 04:37:53;;;;;;;;;;;;;;;25.73;28.37;100775.28;5094926;28;1901;-34
2022/04/27 04:40:18;;;;;;;;;;;;;;;25.83;28.40;100776.91;5096910;28;1289;-32
2022/04/27 04:42:44;;;;;;;;;;;;;;;25.88;28.40;100785.31;5097222;28;1245;-35
2022/04/27 04:45:09;;;;;;;;;;;;;;;25.83;28.49;100787.69;5096991;28;900;-35
2022/04/27 04:47:34;;;;;;;;;;;;;;;25.90;28.50;100777.91;5097329;28;766;-33
2022/04/27 04:50:00;;;;;;;;;;;;;;;25.85;28.39;100781.13;5096599;28;908;-31
2022/04/27 04:52:25;;;;;;;;;;;;;;;25.89;28.44;100782.44;5087610;28;812;-33
2022/04/27 04:54:50;;;;;;;;;;;;;;;25.95;28.39;100780.06;5090842;28;882;-37
2022/04/27 04:57:15;;;;;;;;;;;;;;;26.12;27.91;100787.09;5077381;28;1901;-32
2022/04/27 04:59:41;;;;;;;;;;;;;;;26.59;27.54;100781.78;5077315;28;1148;-33
2022/04/27 05:02:06;;;;;;;;;;;;;;;26.71;27.70;100786.81;5076972;28;1010;-34
2022/04/27 05:04:32;;;;;;;;;;;;;;;26.90;27.24;100786.31;5076517;28;989;-32
2022/04/27 05:06:57;;;;;;;;;;;;;;;27.10;27.18;100793.94;5077150;28;895;-30
2022/04/27 05:09:22;;;;;;;;;;;;;;;26.92;26.95;100794.22;5073206;28;1064;-32
2022/04/27 05:11:48;;;;;;;;;;;;;;;26.90;27.23;100793.56;5076733;28;820;-33
2022/04/27 05:14:13;;;;;;;;;;;;;;;26.92;26.99;100806.88;5076702;28;1016;-32
2022/04/27 05:16:38;;;;;;;;;;;;;;;26.96;27.12;100802.81;5076187;28;1960;-30
2022/04/27 05:19:03;;;;;;;;;;;;;;;26.95;27.29;100801.97;5076654;28;802;-31
2022/04/27 05:21:29;;;;;;;;;;;;;;;26.94;27.30;100804.84;5076379;28;850;-36
2022/04/27 05:23:54;;;;;;;;;;;;;;;27.07;26.69;100806.97;5076333;28;1114;-33
2022/04/27 05:26:19;;;;;;;;;;;;;;;27.09;26.92;100807.63;5076270;28;840;-34
2022/04/27 05:34:13;;;;;;;;;;;;;;;27.00;27.67;100826.56;5074722;28;1032;-31
2022/04/27 05:36:38;;;;;;;;;;;;;;;27.00;27.50;100818.47;5057838;28;1902;-37
2022/04/27 05:39:03;;;;;;;;;;;;;;;27.08;28.02;100827.53;5075603;28;1235;-32
2022/04/27 05:41:29;;;;;;;;;;;;;;;26.99;27.95;100822.16;5075459;28;1283;-34
2022/04/27 05:43:54;;;;;;;;;;;;;;;27.12;27.67;100820.75;5075403;28;1331;-34
2022/04/27 05:46:19;;;;;;;;;;;;;;;27.01;26.92;100824.69;5076202;28;1230;-36
2022/04/27 05:48:45;;;;;;;;;;;;;;;26.80;26.76;100823.50;5075096;28;1246;-33
2022/04/27 05:51:10;;;;;;;;;;;;;;;26.96;26.90;100825.22;5075817;28;1001;-31
2022/04/27 05:53:36;;;;;;;;;;;;;;;27.12;27.42;100832.41;5075883;28;852;-33
2022/04/27 05:56:01;;;;;;;;;;;;;;;27.35;27.23;100836.94;5075637;28;1902;-35
2022/04/27 05:58:26;;;;;;;;;;;;;;;27.33;27.54;100830.03;5076275;28;962;-35
2022/04/27 06:00:52;;;;;;;;;;;;;;;27.36;27.34;100826.97;5075814;28;1037;-34
2022/04/27 06:03:18;;;;;;;;;;;;;;;27.39;27.39;100826.63;5075970;28;849;-32
2022/04/27 06:05:43;;;;;;;;;;;;;;;27.41;27.65;100831.84;5075813;28;708;-33
2022/04/27 06:08:09;;;;;;;;;;;;;;;27.42;27.83;100830.81;5075577;28;987;-33
2022/04/27 06:10:35;;;;;;;;;;;;;;;27.50;27.23;100836.13;5075496;28;794;-35
2022/04/27 06:13:00;;;;;;;;;;;;;;;27.51;27.23;100829.69;5075874;28;845;-31
2022/04/27 06:15:25;;;;;;;;;;;;;;;27.51;27.13;100833.25;5075828;28;821;-35
2022/04/27 06:17:51;;;;;;;;;;;;;;;27.53;27.17;100827.66;5074537;28;1961;-34
2022/04/27 06:20:16;;;;;;;;;;;;;;;27.51;27.66;100826.97;5074395;28;1325;-32
2022/04/27 06:22:41;;;;;;;;;;;;;;;27.42;27.39;100825.41;5075237;28;1203;-30
2022/04/27 06:25:07;;;;;;;;;;;;;;;27.41;27.44;100832.66;5074592;28;1301;-33
2022/04/27 06:27:32;;;;;;;;;;;;;;;27.39;27.77;100829.31;5076131;28;778;-36
2022/04/27 06:29:58;;;;;;;;;;;;;;;27.45;27.63;100827.72;5075398;28;946;-30
2022/04/27 06:32:23;;;;;;;;;;;;;;;27.90;27.47;100833.22;5074523;28;1088;-29
2022/04/27 06:34:49;;;;;;;;;;;;;;;27.80;27.27;100838.03;5075804;28;770;-30
2022/04/27 06:37:14;;;;;;;;;;;;;;;27.92;27.17;100833.88;5075615;28;1945;-32
2022/04/27 06:39:40;;;;;;;;;;;;;;;27.98;26.98;100849.34;5074095;28;1001;-34
2022/04/27 06:42:06;;;;;;;;;;;;;;;27.84;27.38;100845.59;5075550;28;804;-33
2022/04/27 06:44:32;;;;;;;;;;;;;;;27.47;27.48;100845.44;5075753;28;778;-32
2022/04/27 06:46:57;;;;;;;;;;;;;;;27.51;27.03;100848.59;5078308;28;1033;-34
2022/04/27 06:49:22;;;;;;;;;;;;;;;27.60;27.10;100852.06;5078513;28;1127;-32
2022/04/27 06:51:47;;;;;;;;;;;;;;;27.65;26.79;100856.91;5079370;28;1211;-36
2022/04/27 06:54:13;;;;;;;;;;;;;;;27.72;26.91;100860.59;5079027;28;1203;-34
2022/04/27 06:56:38;;;;;;;;;;;;;;;27.70;26.96;100859.94;5079276;28;1905;-34
2022/04/27 06:59:03;;;;;;;;;;;;;;;27.60;26.74;100868.28;5078558;28;1100;-32
2022/04/27 07:01:29;;;;;;;;;;;;;;;27.47;27.13;100869.75;5098578;28;1313;-32
2022/04/27 07:03:55;;;;;;;;;;;;;;;27.49;27.26;100880.38;5099180;28;801;-30
2022/04/27 07:06:21;;;;;;;;;;;;;;;27.55;26.99;100876.09;5099178;28;1612;-32
2022/04/27 07:08:47;;;;;;;;;;;;;;;27.66;26.97;100872.94;5098553;28;1430;-33
2022/04/27 07:11:12;;;;;;;;;;;;;;;27.70;26.43;100876.16;5091824;28;801;-35
2022/04/27 07:13:38;;;;;;;;;;;;;;;27.68;26.43;100892.56;5081721;28;727;-34
2022/04/27 07:16:05;;;;;;;;;;;;;;;27.70;26.15;100890.53;5079146;28;1906;-33
2022/04/27 07:18:30;;;;;;;;;;;;;;;27.67;26.31;100890.84;5079075;28;729;-34
2022/04/27 07:20:56;;;;;;;;;;;;;;;27.77;26.26;100897.88;5079585;28;950;-34
2022/04/27 07:23:21;;;;;;;;;;;;;;;27.76;26.33;100894.34;5084527;28;975;-32
2022/04/27 07:25:46;;;;;;;;;;;;;;;27.71;26.08;100894.88;5082704;28;793;-33
2022/04/27 07:28:12;;;;;;;;;;;;;;;27.61;26.76;100903.22;5079304;28;734;-34
2022/04/27 07:30:37;;;;;;;;;;;;;;;27.70;26.17;100901.34;5079413;28;812;-35
2022/04/27 07:33:03;;;;;;;;;;;;;;;27.75;26.12;100901.63;5079140;28;849;-31
2022/04/27 07:35:29;;;;;;;;;;;;;;;27.79;25.84;100896.69;5091329;28;996;-33
2022/04/27 07:37:54;;;;;;;;;;;;;;;27.91;26.09;100893.53;5098350;28;1968;-36
2022/04/27 07:40:19;;;;;;;;;;;;;;;27.75;26.70;100896.22;5090809;28;916;-33
2022/04/27 07:42:45;;;;;;;;;;;;;;;27.73;26.79;100898.25;5085731;28;1132;-35
2022/04/27 07:45:10;;;;;;;;;;;;;;;27.78;26.37;100905.00;5097778;28;1312;-32
2022/04/27 07:47:39;;;;;;;;;;;;;;;27.77;26.58;100906.00;5092149;28;783;-33
2022/04/27 07:50:05;;;;;;;;;;;;;;;27.80;26.52;100911.88;5091340;28;989;-33
2022/04/27 07:52:31;;;;;;;;;;;;;;;27.88;26.28;100916.34;5091689;28;842;-33
2022/04/27 07:54:56;;;;;;;;;;;;;;;27.80;26.71;100913.72;5091731;28;832;-33
2022/04/27 07:57:21;;;;;;;;;;;;;;;27.94;26.34;100915.63;5090520;28;1901;-37
2022/04/27 07:59:47;;;;;;;;;;;;;;;27.87;26.33;100914.69;5097045;28;1224;-30
2022/04/27 08:02:12;;;;;;;;;;;;;;;27.95;25.26;100924.56;5097148;28;857;-34
2022/04/27 08:04:37;;;;;;;;;;;;;;;27.84;24.47;100924.00;5084077;28;1436;-35
2022/04/27 08:07:03;;;;;;;;;;;;;;;27.50;24.94;100928.84;5097080;28;1037;-36
2022/04/27 08:09:28;;;;;;;;;;;;;;;27.34;24.90;100929.78;5085915;28;893;-36
2022/04/27 08:11:54;;;;;;;;;;;;;;;27.66;24.92;100931.59;5077807;28;982;-31
2022/04/27 08:14:19;;;;;;;;;;;;;;;27.72;26.20;100931.72;5083967;28;810;-34
2022/04/27 08:16:44;;;;;;;;;;;;;;;27.67;26.04;100944.06;5079807;28;1906;-33
2022/04/27 08:19:10;;;;;;;;;;;;;;;27.75;26.16;100944.03;5077794;28;827;-30
2022/04/27 08:21:35;;;;;;;;;;;;;;;27.84;26.22;100947.50;5078371;28;950;-31
2022/04/27 08:24:03;;;;;;;;;;;;;;;27.84;25.85;100945.63;5086339;28;746;-31
2022/04/27 08:26:29;;;;;;;;;;;;;;;27.84;25.91;100948.31;5082165;28;803;-32
2022/04/27 08:28:54;;;;;;;;;;;;;;;27.86;26.08;100946.28;5096269;28;1160;-36
2022/04/27 08:31:20;;;;;;;;;;;;;;;27.83;26.03;100954.75;5088448;28;1345;-35
2022/04/27 08:33:45;;;;;;;;;;;;;;;27.84;26.31;100948.31;5078598;28;910;-35
2022/04/27 08:36:11;;;;;;;;;;;;;;;27.82;26.21;100946.84;5097178;28;1890;-31
2022/04/27 08:38:37;;;;;;;;;;;;;;;27.84;26.23;100936.69;5097151;28;1262;-33
2022/04/27 08:41:03;;;;;;;;;;;;;;;27.80;26.10;100946.16;5089202;28;1152;-35
2022/04/27 08:43:28;;;;;;;;;;;;;;;27.92;25.89;100943.88;5078017;28;801;-35
2022/04/27 08:45:54;;;;;;;;;;;;;;;27.90;26.01;100948.63;5059050;28;1497;-33
2022/04/27 08:48:21;;;;;;;;;;;;;;;27.88;26.16;100951.50;5077682;28;786;-33
2022/04/27 08:50:46;;;;;;;;;;;;;;;27.84;26.22;100942.91;5089113;28;977;-33
2022/04/27 08:53:12;;;;;;;;;;;;;;;27.81;26.46;100950.56;5087524;28;822;-33
2022/04/27 08:55:38;;;;;;;;;;;;;;;27.81;26.23;100945.16;5084128;28;757;-34
2022/04/27 08:58:07;;;;;;;;;;;;;;;27.88;26.43;100951.50;5097493;28;1901;-35
2022/04/27 09:00:33;;;;;;;;;;;;;;;27.95;26.38;100948.91;5096543;28;1204;-33
2022/04/27 09:03:17;;;;;;;;;;;;;;;27.98;26.27;100945.84;5097522;28;1010;-33
2022/04/27 09:05:49;;;;;;;;;;;;;;;27.98;26.52;100952.09;5094955;28;765;-33
2022/04/27 09:08:14;;;;;;;;;;;;;;;27.96;26.37;100951.41;5078944;28;840;-32
2022/04/27 09:10:39;;;;;;;;;;;;;;;28.00;26.36;100943.78;5096497;28;863;-34
2022/04/27 09:13:05;;;;;;;;;;;;;;;27.97;26.75;100941.47;5096301;28;1086;-35
2022/04/27 09:15:30;;;;;;;;;;;;;;;28.00;26.66;100941.09;5096276;28;833;-32
2022/04/27 09:20:52;;;;;;;;;;;;;;;28.09;26.36;100939.16;5079924;28;686;-34
2022/04/27 09:23:24;;;;;;;;;;;;;;;28.14;26.14;100935.88;5079179;28;871;-34
2022/04/27 09:25:51;;;;;;;;;;;;;;;28.14;26.24;100938.59;5084230;28;1578;-32
2022/04/27 09:28:16;;;;;;;;;;;;;;;28.11;26.26;100943.34;5076871;28;885;-36
2022/04/27 09:30:42;;;;;;;;;;;;;;;28.06;26.56;100944.94;5081551;28;853;-34
2022/04/27 09:33:07;;;;;;;;;;;;;;;28.09;26.48;100950.78;5096421;28;797;-36
2022/04/27 09:35:34;;;;;;;;;;;;;;;28.16;26.34;100956.28;5096433;28;833;-32
2022/04/27 09:38:13;;;;;;;;;;;;;;;28.13;26.24;100953.16;5095587;28;1889;-36
2022/04/27 09:40:44;;;;;;;;;;;;;;;28.10;26.32;100957.03;5077341;28;815;-31
2022/04/27 09:43:13;;;;;;;;;;;;;;;28.09;26.48;100956.19;5079051;28;1008;-31
2022/04/27 09:45:39;;;;;;;;;;;;;;;28.09;26.49;100960.78;5076893;28;818;-30
2022/04/27 09:48:04;;;;;;;;;;;;;;;28.14;26.48;100955.66;5090422;28;1139;-35
2022/04/27 09:50:45;;;;;;;;;;;;;;;28.15;26.59;100959.19;5096201;28;781;-33
2022/04/27 09:53:10;;;;;;;;;;;;;;;28.15;26.59;100965.44;5095782;28;885;-32
2022/04/27 09:55:36;;;;;;;;;;;;;;;28.12;26.43;100963.13;5063950;28;959;-33
2022/04/27 09:58:01;;;;;;;;;;;;;;;28.21;26.54;100969.28;5070560;28;1972;-35
2022/04/27 10:00:28;;;;;;;;;;;;;;;28.26;26.51;100966.03;5057749;28;1133;-33
2022/04/27 10:02:54;;;;;;;;;;;;;;;28.21;26.47;100967.41;5076775;28;774;-35
2022/04/27 10:05:21;;;;;;;;;;;;;;;28.23;26.45;100969.91;5079459;28;1096;-34
2022/04/27 10:07:46;;;;;;;;;;;;;;;28.29;26.31;100968.34;5095617;28;1020;-33
2022/04/27 10:10:11;;;;;;;;;;;;;;;28.33;26.25;100967.81;5093646;28;970;-32
2022/04/27 10:12:38;;;;;;;;;;;;;;;28.38;26.14;100972.66;5077341;28;1488;-32
2022/04/27 10:15:05;;;;;;;;;;;;;;;28.56;25.90;100969.56;5095315;28;857;-34
2022/04/27 10:17:30;;;;;;;;;;;;;;;28.44;26.09;100971.94;5095377;28;1906;-35
2022/04/27 10:19:56;;;;;;;;;;;;;;;28.47;26.22;100966.16;5076793;28;857;-32
2022/04/27 10:22:25;;;;;;;;;;;;;;;28.50;26.03;100966.78;5095010;28;1135;-34
2022/04/27 10:24:50;;;;;;;;;;;;;;;28.63;26.21;100966.16;5095173;28;988;-32
2022/04/27 10:27:16;;;;;;;;;;;;;;;28.51;25.98;100968.47;5091019;28;789;-34
2022/04/27 10:29:42;;;;;;;;;;;;;;;28.55;26.00;100961.66;5076148;28;750;-34
2022/04/27 10:32:07;;;;;;;;;;;;;;;28.51;26.22;100958.47;5058294;28;1430;-36
2022/04/27 10:34:33;;;;;;;;;;;;;;;28.61;26.05;100960.91;5082484;28;913;-32
2022/04/27 10:36:59;;;;;;;;;;;;;;;27.87;25.90;100961.50;5076532;28;1890;-33
2022/04/27 10:39:25;;;;;;;;;;;;;;;28.57;25.80;100962.31;5091592;28;787;-37
2022/04/27 10:41:56;;;;;;;;;;;;;;;28.70;25.79;100967.03;5075923;28;810;-35
2022/04/27 10:44:28;;;;;;;;;;;;;;;28.66;25.92;100963.88;5075966;28;753;-36
2022/04/27 10:46:54;;;;;;;;;;;;;;;28.78;26.08;100964.25;5061187;28;1228;-35
2022/04/27 10:49:22;;;;;;;;;;;;;;;28.90;25.80;100958.31;5066558;28;1461;-35
2022/04/27 10:51:57;;;;;;;;;;;;;;;28.55;26.50;100965.22;5076229;28;858;-34
2022/04/27 10:54:25;;;;;;;;;;;;;;;28.59;26.26;100955.66;5081938;28;877;-33
2022/04/27 10:56:50;;;;;;;;;;;;;;;28.73;26.03;100953.13;5094860;28;1897;-38
2022/04/27 10:59:34;;;;;;;;;;;;;;;28.95;25.86;100954.03;5094666;28;1244;-33
2022/04/27 11:01:59;;;;;;;;;;;;;;;28.93;26.21;100955.22;5075900;28;881;-33
2022/04/27 11:04:31;;;;;;;;;;;;;;;28.87;26.05;100953.28;5075623;28;746;-36
2022/04/27 11:07:11;;;;;;;;;;;;;;;28.80;26.23;100942.38;5076425;28;790;-33
2022/04/27 11:09:43;;;;;;;;;;;;;;;28.75;25.98;100950.22;5092506;28;837;-34
2022/04/27 11:12:08;;;;;;;;;;;;;;;28.56;26.36;100941.69;5077642;28;1409;-35
2022/04/27 11:14:34;;;;;;;;;;;;;;;28.65;26.13;100939.72;5067552;28;1418;-34
2022/04/27 11:17:00;;;;;;;;;;;;;;;28.55;26.63;100948.13;5075854;28;1906;-37
2022/04/27 11:19:35;;;;;;;;;;;;;;;28.81;26.22;100946.78;5075957;28;873;-37
2022/04/27 11:22:13;;;;;;;;;;;;;;;28.69;26.14;100946.44;5075360;28;778;-35
2022/04/27 11:24:38;;;;;;;;;;;;;;;28.93;25.78;100947.97;5084149;28;923;-35
2022/04/27 11:27:03;;;;;;;;;;;;;;;28.97;25.73;100940.34;5084188;28;833;-37
2022/04/27 11:29:29;;;;;;;;;;;;;;;29.04;25.70;100943.13;5075094;28;818;-35
2022/04/27 11:31:54;;;;;;;;;;;;;;;29.01;25.67;100946.22;5085472;28;1061;-38
2022/04/27 11:34:23;;;;;;;;;;;;;;;28.87;25.83;100942.47;5098688;28;1305;-36
2022/04/27 11:36:50;;;;;;;;;;;;;;;28.73;26.07;100932.31;5098223;28;1966;-34
2022/04/27 11:39:22;;;;;;;;;;;;;;;28.80;26.02;100939.69;5098391;28;1344;-37
2022/04/27 11:41:56;;;;;;;;;;;;;;;28.69;26.22;100930.19;5098140;28;1140;-34
2022/04/27 11:44:25;;;;;;;;;;;;;;;29.03;25.84;100931.44;5097894;28;1313;-36
2022/04/27 11:46:50;;;;;;;;;;;;;;;28.89;26.18;100924.16;5097441;28;1040;-34
2022/04/27 11:49:15;;;;;;;;;;;;;;;29.03;25.96;100927.91;5098044;28;1044;-36
2022/04/27 11:51:47;;;;;;;;;;;;;;;28.85;25.92;100926.41;5097819;28;1296;-35
2022/04/27 11:54:28;;;;;;;;;;;;;;;28.91;26.14;100928.34;5097364;28;1084;-34
2022/04/27 11:56:57;;;;;;;;;;;;;;;28.89;26.18;100922.31;5096040;28;1960;-36
2022/04/27 11:59:23;;;;;;;;;;;;;;;28.87;26.12;100924.38;5097831;28;1106;-31
2022/04/27 12:01:52;;;;;;;;;;;;;;;29.13;26.10;100919.47;5098094;28;761;-32
2022/04/27 12:04:17;;;;;;;;;;;;;;;28.98;25.73;100919.50;5097668;28;781;-33
2022/04/27 12:06:44;;;;;;;;;;;;;;;29.06;25.82;100925.63;5078423;28;972;-36
2022/04/27 12:09:14;;;;;;;;;;;;;;;29.02;26.10;100927.06;5070264;28;940;-37
2022/04/27 12:11:41;;;;;;;;;;;;;;;29.07;25.82;100930.03;5083970;28;1071;-33
2022/04/27 12:14:06;;;;;;;;;;;;;;;29.05;25.79;100929.38;5078912;28;1214;-31
2022/04/27 12:16:31;;;;;;;;;;;;;;;29.05;26.05;100923.13;5078656;28;1909;-36
2022/04/27 12:18:59;;;;;;;;;;;;;;;29.05;25.79;100925.81;5095016;28;1004;-37
2022/04/27 12:21:28;;;;;;;;;;;;;;;29.05;25.76;100921.25;5097266;28;1032;-35
2022/04/27 12:23:57;;;;;;;;;;;;;;;29.03;25.98;100927.91;5092821;28;1102;-35
2022/04/27 12:26:22;;;;;;;;;;;;;;;29.06;25.99;100922.91;5096969;28;1162;-38
2022/04/27 12:28:49;;;;;;;;;;;;;;;29.00;25.82;100915.56;5097290;28;1099;-35
2022/04/27 12:31:16;;;;;;;;;;;;;;;29.11;25.85;100922.38;5096464;28;1096;-35
2022/04/27 12:33:43;;;;;;;;;;;;;;;29.28;25.48;100920.22;5098014;28;770;-37
2022/04/27 12:39:02;;;;;;;;;;;;;;;29.02;25.70;100920.78;5096859;28;831;-36
2022/04/27 12:41:29;;;;;;;;;;;;;;;29.20;25.79;100925.78;5082706;28;919;-35
2022/04/27 12:43:54;;;;;;;;;;;;;;;27.93;26.36;100924.75;5094263;28;1124;-36
2022/04/27 12:46:20;;;;;;;;;;;;;;;27.65;26.85;100922.63;5076268;28;1231;-38
2022/04/27 12:48:45;;;;;;;;;;;;;;;27.52;27.42;100920.53;5078192;28;817;-38
2022/04/27 12:51:10;;;;;;;;;;;;;;;27.43;27.47;100913.50;5077595;28;781;-36
2022/04/27 12:53:36;;;;;;;;;;;;;;;27.36;27.19;100911.53;5082869;28;845;-37
2022/04/27 12:56:05;;;;;;;;;;;;;;;27.33;27.08;100909.19;5089629;28;1953;-36
2022/04/27 12:58:31;;;;;;;;;;;;;;;27.30;26.99;100909.56;5077503;28;871;-38
2022/04/27 13:00:57;;;;;;;;;;;;;;;27.20;27.51;100907.13;5076918;28;1610;-38
2022/04/27 13:03:23;;;;;;;;;;;;;;;27.23;27.93;100905.91;5077004;28;870;-38
2022/04/27 13:05:49;;;;;;;;;;;;;;;27.23;27.19;100904.03;5076655;28;801;-36
2022/04/27 13:08:15;;;;;;;;;;;;;;;27.20;27.48;100908.97;5076668;28;904;-35
2022/04/27 13:13:25;;;;;;;;;;;;;;;27.13;26.52;100907.00;5072476;28;616;-38
2022/04/27 13:15:50;;;;;;;;;;;;;;;27.14;26.58;100905.13;5076637;28;849;-33